| time (UTC) | temp C | wind direction | speed KPH | gust KPH | rain 1hr cm | rain 24hr cm | rain mn cm | humidity % | barometer mb |
| 20260906234122 | 15 | 90 | 0.0 | 0.0 | 0.00 | 0.00 | 0.00 | 84 | 1017.6 |
| 20260906233122 | 15 | 90 | 0.0 | 0.0 | 0.00 | 0.00 | 0.00 | 83 | 1017.8 |
| 20260906232143 | 15 | 113 | 1.6 | 16.1 | 0.00 | 0.00 | 0.00 | 83 | 1017.8 |
| 20260906231143 | 16 | 100 | 3.2 | 27.4 | 0.00 | 0.00 | 0.00 | 80 | 1017.9 |
| 20260906230122 | 16 | 109 | 4.8 | 22.5 | 0.00 | 0.00 | 0.00 | 79 | 1017.8 |
| 20260906225122 | 16 | 113 | 4.8 | 27.4 | 0.00 | 0.00 | 0.00 | 80 | 1017.9 |
| 20260906224143 | 16 | 110 | 1.6 | 22.5 | 0.00 | 0.00 | 0.00 | 79 | 1018.0 |
| 20260906223123 | 16 | 108 | 8.0 | 30.6 | 0.00 | 0.00 | 0.00 | 78 | 1018.0 |
| 20260906222124 | 16 | 113 | 4.8 | 20.9 | 0.00 | 0.00 | 0.00 | 78 | 1018.2 |
| 20260906221149 | 16 | 119 | 8.0 | 20.9 | 0.00 | 0.00 | 0.00 | 82 | 1018.1 |
| 20260906221145 | 16 | 120 | 8.0 | 20.9 | 0.00 | 0.00 | 0.00 | 82 | 1018.1 |
| 20260906220123 | 16 | 158 | 0.0 | 0.0 | 0.00 | 0.00 | 0.00 | 82 | 1018.0 |
| 20260906215123 | 15 | 95 | 0.0 | 6.4 | 0.00 | 0.00 | 0.00 | 84 | 1018.1 |
| 20260906214123 | 15 | 135 | 0.0 | 20.9 | 0.00 | 0.00 | 0.00 | 86 | 1018.1 |
| 20260906213123 | 15 | 113 | 0.0 | 12.9 | 0.00 | 0.00 | 0.00 | 89 | 1018.2 |
| 20260906212123 | 14 | 113 | 0.0 | 0.0 | 0.00 | 0.00 | 0.00 | 92 | 1018.2 |
| 20260906211124 | 13 | 117 | 1.6 | 20.9 | 0.00 | 0.00 | 0.00 | 95 | 1018.4 |
| 20260906210123 | 13 | 101 | 0.0 | 12.9 | 0.00 | 0.00 | 0.00 | 96 | 1018.4 |
| 20260906205123 | 13 | 118 | 1.6 | 17.7 | 0.00 | 0.00 | 0.00 | 97 | 1018.4 |
| 20260906204144 | 13 | 125 | 1.6 | 25.7 | 0.00 | 0.00 | 0.00 | 97 | 1018.4 |
| 20260906203123 | 13 | 121 | 4.8 | 29.0 | 0.00 | 0.00 | 0.00 | 97 | 1018.6 |
| 20260906202123 | 13 | 118 | 1.6 | 20.9 | 0.00 | 0.00 | 0.00 | 97 | 1018.7 |
| 20260906201123 | 13 | 117 | 3.2 | 24.1 | 0.00 | 0.00 | 0.00 | 94 | 1018.7 |
| 20260906200123 | 14 | 133 | 1.6 | 14.5 | 0.00 | 0.00 | 0.00 | 89 | 1018.7 |
| 20260906195123 | 15 | 119 | 1.6 | 12.9 | 0.00 | 0.00 | 0.00 | 88 | 1018.9 |
| 20260906194144 | 15 | 147 | 1.6 | 14.5 | 0.00 | 0.00 | 0.00 | 88 | 1018.9 |
| 20260906193124 | 15 | 147 | 1.6 | 14.5 | 0.00 | 0.00 | 0.00 | 87 | 1018.9 |
| 20260906192123 | 15 | 109 | 1.6 | 12.9 | 0.00 | 0.00 | 0.00 | 87 | 1018.9 |
| 20260906191123 | 14 | 143 | 3.2 | 20.9 | 0.00 | 0.00 | 0.00 | 87 | 1019.0 |
| 20260906190123 | 14 | 140 | 1.6 | 20.9 | 0.00 | 0.00 | 0.00 | 87 | 1019.1 |
| 20260906185145 | 15 | 225 | 0.0 | 4.8 | 0.00 | 0.00 | 0.00 | 86 | 1019.2 |
| 20260906184123 | 14 | 162 | 1.6 | 16.1 | 0.00 | 0.00 | 0.00 | 86 | 1019.2 |
| 20260906183123 | 14 | 165 | 3.2 | 17.7 | 0.00 | 0.00 | 0.00 | 86 | 1019.2 |
| 20260906182123 | 14 | 123 | 9.7 | 30.6 | 0.00 | 0.00 | 0.00 | 87 | 1019.4 |
| 20260906181123 | 14 | 123 | 3.2 | 25.7 | 0.00 | 0.00 | 0.00 | 86 | 1019.5 |
| 20260906180124 | 14 | 133 | 9.7 | 30.6 | 0.00 | 0.00 | 0.00 | 86 | 1019.5 |
| 20260906175123 | 15 | 119 | 12.9 | 32.2 | 0.00 | 0.00 | 0.00 | 85 | 1019.5 |
| 20260906174123 | 15 | 115 | 12.9 | 32.2 | 0.00 | 0.00 | 0.00 | 83 | 1019.5 |
| 20260906173123 | 15 | 128 | 8.0 | 32.2 | 0.00 | 0.00 | 0.00 | 81 | 1019.5 |
| 20260906172144 | 14 | 127 | 6.4 | 29.0 | 0.00 | 0.00 | 0.00 | 83 | 1019.5 |
| 20260906171123 | 15 | 120 | 4.8 | 20.9 | 0.00 | 0.00 | 0.00 | 84 | 1019.6 |
| 20260906170123 | 14 | 126 | 1.6 | 24.1 | 0.00 | 0.00 | 0.00 | 84 | 1019.5 |
| 20260906165144 | 14 | 133 | 6.4 | 20.9 | 0.00 | 0.00 | 0.00 | 84 | 1019.5 |
| 20260906164124 | 15 | 90 | 0.0 | 16.1 | 0.00 | 0.00 | 0.00 | 83 | 1019.5 |
| 20260906163123 | 14 | 113 | 0.0 | 0.0 | 0.00 | 0.00 | 0.00 | 85 | 1019.6 |
| 20260906162123 | 14 | 113 | 0.0 | 0.0 | 0.00 | 0.00 | 0.00 | 85 | 1019.5 |
| 20260906161123 | 15 | 158 | 0.0 | 0.0 | 0.00 | 0.00 | 0.00 | 83 | 1019.7 |
| 20260906160125 | 14 | 130 | 0.0 | 12.9 | 0.00 | 0.00 | 0.00 | 89 | 1019.6 |
| 20260906155123 | 13 | 180 | 0.0 | 16.1 | 0.00 | 0.00 | 0.00 | 92 | 1019.7 |
| 20260906154123 | 13 | 113 | 0.0 | 0.0 | 0.00 | 0.00 | 0.00 | 93 | 1019.8 |
| 20260906153123 | 12 | 127 | 0.0 | 12.9 | 0.00 | 0.00 | 0.00 | 95 | 1019.8 |
| 20260906152124 | 12 | 113 | 1.6 | 19.3 | 0.00 | 0.00 | 0.00 | 97 | 1019.9 |
| 20260906151144 | 12 | 113 | 0.0 | 0.0 | 0.00 | 0.00 | 0.00 | 97 | 1020.0 |
| 20260906150123 | 12 | 113 | 0.0 | 0.0 | 0.00 | 0.00 | 0.00 | 97 | 1020.1 |
| 20260906145123 | 12 | 113 | 0.0 | 0.0 | 0.00 | 0.00 | 0.00 | 97 | 1020.1 |
| 20260906144123 | 12 | 180 | 0.0 | 0.0 | 0.00 | 0.00 | 0.00 | 97 | 1020.1 |
| 20260906143123 | 12 | 113 | 0.0 | 0.0 | 0.00 | 0.00 | 0.00 | 97 | 1020.2 |
| 20260906142144 | 12 | 248 | 0.0 | 0.0 | 0.00 | 0.00 | 0.00 | 97 | 1020.2 |
| 20260906141123 | 11 | 68 | 0.0 | 0.0 | 0.00 | 0.00 | 0.00 | 97 | 1020.2 |
| 20260906140125 | 11 | 158 | 0.0 | 0.0 | 0.00 | 0.00 | 0.00 | 97 | 1020.2 |
| 20260906135124 | 11 | 203 | 0.0 | 0.0 | 0.00 | 0.00 | 0.00 | 97 | 1020.2 |
| 20260906134123 | 11 | 113 | 0.0 | 0.0 | 0.00 | 0.00 | 0.00 | 97 | 1020.2 |
| 20260906133123 | 11 | 113 | 0.0 | 0.0 | 0.00 | 0.00 | 0.00 | 97 | 1020.4 |
| 20260906132123 | 11 | 113 | 0.0 | 0.0 | 0.00 | 0.00 | 0.00 | 97 | 1020.5 |
| 20260906131123 | 11 | 113 | 0.0 | 0.0 | 0.00 | 0.00 | 0.00 | 97 | 1020.6 |
| 20260906130123 | 11 | 135 | 0.0 | 0.0 | 0.00 | 0.00 | 0.00 | 97 | 1020.7 |
| 20260906125123 | 11 | 90 | 0.0 | 0.0 | 0.00 | 0.00 | 0.00 | 97 | 1020.5 |
| 20260906124123 | 11 | 113 | 0.0 | 0.0 | 0.00 | 0.00 | 0.00 | 97 | 1020.5 |
| 20260906123123 | 11 | 135 | 0.0 | 0.0 | 0.00 | 0.00 | 0.00 | 97 | 1020.2 |
| 20260906122123 | 11 | 158 | 0.0 | 0.0 | 0.00 | 0.00 | 0.00 | 97 | 1020.5 |
| 20260906121123 | 11 | 158 | 0.0 | 0.0 | 0.00 | 0.00 | 0.00 | 97 | 1020.4 |
| 20260906120123 | 11 | 90 | 0.0 | 0.0 | 0.00 | 0.00 | 0.00 | 97 | 1020.4 |
| 20260906115123 | 11 | 113 | 0.0 | 0.0 | 0.00 | 0.00 | 0.00 | 97 | 1020.2 |
| 20260906114144 | 11 | 113 | 0.0 | 0.0 | 0.00 | 0.00 | 0.00 | 97 | 1020.2 |
| 20260906113123 | 11 | 113 | 0.0 | 0.0 | 0.00 | 0.00 | 0.00 | 97 | 1020.4 |
| 20260906112145 | 11 | 113 | 0.0 | 0.0 | 0.00 | 0.00 | 0.00 | 97 | 1020.5 |
| 20260906111123 | 11 | 98 | 1.6 | 17.7 | 0.00 | 0.00 | 0.00 | 97 | 1020.8 |
| 20260906110144 | 11 | 135 | 0.0 | 0.0 | 0.00 | 0.00 | 0.00 | 97 | 1020.8 |
| 20260906105144 | 11 | 90 | 0.0 | 0.0 | 0.00 | 0.00 | 0.00 | 97 | 1021.1 |
| 20260906104123 | 11 | 113 | 0.0 | 0.0 | 0.00 | 0.00 | 0.00 | 97 | 1021.1 |
| 20260906103144 | 11 | 113 | 0.0 | 0.0 | 0.00 | 0.00 | 0.00 | 97 | 1021.1 |
| 20260906102144 | 11 | 135 | 0.0 | 0.0 | 0.00 | 0.00 | 0.00 | 97 | 1021.1 |
| 20260906101123 | 11 | 113 | 0.0 | 0.0 | 0.00 | 0.00 | 0.00 | 97 | 1021.2 |
| 20260906100144 | 11 | 113 | 0.0 | 0.0 | 0.00 | 0.00 | 0.00 | 97 | 1021.2 |
| 20260906095123 | 11 | 90 | 0.0 | 0.0 | 0.00 | 0.00 | 0.00 | 97 | 1021.2 |
| 20260906094123 | 11 | 113 | 0.0 | 0.0 | 0.00 | 0.00 | 0.00 | 97 | 1021.2 |
| 20260906093123 | 11 | 90 | 0.0 | 0.0 | 0.00 | 0.00 | 0.00 | 97 | 1021.2 |
| 20260906092123 | 11 | 90 | 0.0 | 0.0 | 0.00 | 0.00 | 0.00 | 97 | 1021.2 |
| 20260906091124 | 11 | 113 | 0.0 | 0.0 | 0.00 | 0.00 | 0.00 | 97 | 1021.4 |
| 20260906090146 | 11 | 135 | 0.0 | 0.0 | 0.00 | 0.00 | 0.00 | 97 | 1021.5 |
| 20260906085123 | 11 | 90 | 0.0 | 0.0 | 0.00 | 0.00 | 0.00 | 97 | 1021.6 |
| 20260906084123 | 11 | 135 | 0.0 | 0.0 | 0.00 | 0.00 | 0.00 | 97 | 1021.6 |
| 20260906083123 | 11 | 113 | 0.0 | 0.0 | 0.00 | 0.00 | 0.00 | 97 | 1021.8 |
| 20260906082123 | 11 | 135 | 0.0 | 8.0 | 0.00 | 0.00 | 0.00 | 97 | 1021.9 |
| 20260906081144 | 11 | 113 | 0.0 | 0.0 | 0.00 | 0.00 | 0.00 | 97 | 1021.9 |
| 20260906080123 | 11 | 113 | 0.0 | 0.0 | 0.00 | 0.00 | 0.00 | 97 | 1021.9 |
| 20260906075144 | 11 | 113 | 0.0 | 6.4 | 0.00 | 0.00 | 0.00 | 97 | 1021.8 |
| 20260906074123 | 11 | 113 | 0.0 | 0.0 | 0.00 | 0.00 | 0.00 | 97 | 1021.8 |
| 20260906073144 | 11 | 113 | 0.0 | 0.0 | 0.00 | 0.00 | 0.00 | 97 | 1021.9 |
| 20260906072144 | 11 | 113 | 1.6 | 12.9 | 0.00 | 0.00 | 0.00 | 97 | 1022.0 |
| 20260906071123 | 11 | 113 | 0.0 | 0.0 | 0.00 | 0.00 | 0.00 | 96 | 1022.0 |
| 20260906070123 | 11 | 113 | 0.0 | 0.0 | 0.00 | 0.00 | 0.00 | 96 | 1022.1 |
| 20260906065123 | 11 | 90 | 0.0 | 0.0 | 0.00 | 0.00 | 0.00 | 96 | 1022.1 |
| 20260906064144 | 11 | 90 | 0.0 | 0.0 | 0.00 | 0.00 | 0.00 | 96 | 1022.1 |
| 20260906063123 | 11 | 90 | 0.0 | 0.0 | 0.00 | 0.00 | 0.00 | 96 | 1022.1 |
| 20260906062123 | 11 | 113 | 0.0 | 0.0 | 0.00 | 0.00 | 0.00 | 96 | 1022.1 |
| 20260906061123 | 11 | 90 | 0.0 | 0.0 | 0.00 | 0.00 | 0.00 | 96 | 1022.0 |
| 20260906060123 | 11 | 90 | 0.0 | 12.9 | 0.00 | 0.00 | 0.00 | 96 | 1022.1 |
| 20260906055123 | 11 | 68 | 0.0 | 0.0 | 0.00 | 0.00 | 0.00 | 96 | 1022.2 |
| 20260906054123 | 11 | 113 | 0.0 | 0.0 | 0.00 | 0.00 | 0.00 | 95 | 1022.2 |
| 20260906053123 | 11 | 113 | 0.0 | 12.9 | 0.00 | 0.00 | 0.00 | 95 | 1022.2 |
| 20260906052123 | 11 | 90 | 0.0 | 0.0 | 0.00 | 0.00 | 0.00 | 95 | 1022.2 |
| 20260906051144 | 11 | 90 | 0.0 | 0.0 | 0.00 | 0.00 | 0.00 | 94 | 1022.1 |
| 20260906050123 | 11 | 90 | 0.0 | 0.0 | 0.00 | 0.00 | 0.00 | 94 | 1022.0 |
| 20260906045123 | 11 | 90 | 0.0 | 0.0 | 0.00 | 0.00 | 0.00 | 94 | 1022.0 |
| 20260906044123 | 11 | 90 | 0.0 | 0.0 | 0.00 | 0.00 | 0.00 | 94 | 1022.0 |
| 20260906043144 | 11 | 90 | 0.0 | 0.0 | 0.00 | 0.00 | 0.00 | 94 | 1021.9 |
| 20260906042123 | 11 | 90 | 0.0 | 0.0 | 0.00 | 0.00 | 0.00 | 93 | 1021.9 |
| 20260906041123 | 11 | 68 | 0.0 | 11.3 | 0.00 | 0.00 | 0.00 | 93 | 1022.0 |
| 20260906040124 | 11 | 45 | 0.0 | 9.7 | 0.00 | 0.00 | 0.00 | 93 | 1022.0 |
| 20260906035124 | 11 | 45 | 0.0 | 0.0 | 0.00 | 0.00 | 0.00 | 93 | 1022.0 |
| 20260906034123 | 11 | 23 | 0.0 | 0.0 | 0.00 | 0.00 | 0.00 | 92 | 1022.0 |
| 20260906033145 | 11 | 45 | 0.0 | 4.8 | 0.00 | 0.00 | 0.00 | 92 | 1021.9 |
| 20260906032123 | 11 | 90 | 0.0 | 0.0 | 0.00 | 0.00 | 0.00 | 92 | 1022.0 |
| 20260906031123 | 11 | 90 | 0.0 | 0.0 | 0.00 | 0.00 | 0.00 | 92 | 1022.0 |
| 20260906030123 | 11 | 90 | 0.0 | 0.0 | 0.00 | 0.00 | 0.00 | 91 | 1022.1 |
| 20260906025123 | 11 | 90 | 0.0 | 0.0 | 0.00 | 0.00 | 0.00 | 91 | 1022.0 |
| 20260906024123 | 11 | 90 | 0.0 | 4.8 | 0.00 | 0.00 | 0.00 | 91 | 1021.9 |
| 20260906023123 | 11 | 90 | 0.0 | 9.7 | 0.00 | 0.00 | 0.00 | 90 | 1021.9 |
| 20260906022122 | 12 | 45 | 0.0 | 4.8 | 0.00 | 0.00 | 0.00 | 90 | 1021.8 |
| 20260906021123 | 12 | 68 | 0.0 | 0.0 | 0.00 | 0.00 | 0.00 | 90 | 1021.9 |
| 20260906020123 | 12 | 90 | 0.0 | 0.0 | 0.00 | 0.00 | 0.00 | 89 | 1021.8 |
| 20260906015123 | 12 | 68 | 0.0 | 0.0 | 0.00 | 0.00 | 0.00 | 89 | 1021.8 |
| 20260906014145 | 12 | 90 | 0.0 | 0.0 | 0.00 | 0.00 | 0.00 | 89 | 1021.8 |
| 20260906013123 | 12 | 90 | 0.0 | 0.0 | 0.00 | 0.00 | 0.00 | 88 | 1021.6 |
| 20260906012144 | 12 | 90 | 0.0 | 0.0 | 0.00 | 0.00 | 0.00 | 88 | 1021.6 |
| 20260906011123 | 12 | 113 | 0.0 | 0.0 | 0.00 | 0.00 | 0.00 | 87 | 1021.6 |
| 20260906010123 | 12 | 90 | 0.0 | 0.0 | 0.00 | 0.00 | 0.00 | 87 | 1021.6 |
| 20260906005123 | 12 | 23 | 0.0 | 0.0 | 0.00 | 0.00 | 0.00 | 86 | 1021.6 |
| 20260906004123 | 12 | 45 | 0.0 | 0.0 | 0.00 | 0.00 | 0.00 | 86 | 1021.5 |
| 20260906003123 | 12 | 113 | 0.0 | 0.0 | 0.00 | 0.00 | 0.00 | 86 | 1021.5 |
| 20260906002144 | 12 | 23 | 0.0 | 0.0 | 0.00 | 0.00 | 0.00 | 86 | 1021.5 |
| 20260906001122 | 12 | 90 | 0.0 | 0.0 | 0.00 | 0.00 | 0.00 | 86 | 1021.5 |
| 20260906000123 | 12 | 68 | 0.0 | 0.0 | 0.00 | 0.00 | 0.00 | 85 | 1021.5 |
| 20260905235124 | 13 | 60 | 1.6 | 12.9 | 0.00 | 0.00 | 0.00 | 84 | 1021.5 |